sensor_id;sensor_type;location;lat;lon;timestamp;P1;durP1;ratioP1;P2;durP2;ratioP2
77948;SDS011;67146;51.236;-0.336;2023-06-10T00:00:42;19.83;;;9.45;;
77948;SDS011;67146;51.236;-0.336;2023-06-10T00:03:08;18.55;;;8.18;;
77948;SDS011;67146;51.236;-0.336;2023-06-10T00:05:34;20.67;;;8.10;;
77948;SDS011;67146;51.236;-0.336;2023-06-10T00:08:01;21.55;;;8.07;;
77948;SDS011;67146;51.236;-0.336;2023-06-10T00:10:32;16.67;;;7.55;;
77948;SDS011;67146;51.236;-0.336;2023-06-10T00:13:01;22.27;;;7.85;;
77948;SDS011;67146;51.236;-0.336;2023-06-10T00:15:27;18.73;;;7.45;;
77948;SDS011;67146;51.236;-0.336;2023-06-10T00:17:53;19.20;;;8.18;;
77948;SDS011;67146;51.236;-0.336;2023-06-10T00:20:20;16.65;;;7.18;;
77948;SDS011;67146;51.236;-0.336;2023-06-10T00:22:48;17.63;;;7.95;;
77948;SDS011;67146;51.236;-0.336;2023-06-10T00:25:14;19.58;;;8.13;;
77948;SDS011;67146;51.236;-0.336;2023-06-10T00:27:40;21.30;;;7.78;;
77948;SDS011;67146;51.236;-0.336;2023-06-10T00:30:05;19.23;;;8.47;;
77948;SDS011;67146;51.236;-0.336;2023-06-10T00:32:35;19.67;;;8.23;;
77948;SDS011;67146;51.236;-0.336;2023-06-10T00:35:02;15.23;;;7.45;;
77948;SDS011;67146;51.236;-0.336;2023-06-10T00:37:31;27.02;;;8.77;;
77948;SDS011;67146;51.236;-0.336;2023-06-10T00:39:57;23.67;;;7.65;;
77948;SDS011;67146;51.236;-0.336;2023-06-10T00:42:22;24.50;;;9.43;;
77948;SDS011;67146;51.236;-0.336;2023-06-10T00:44:49;19.08;;;7.93;;
77948;SDS011;67146;51.236;-0.336;2023-06-10T00:47:15;21.10;;;7.53;;
77948;SDS011;67146;51.236;-0.336;2023-06-10T00:49:41;17.10;;;7.40;;
77948;SDS011;67146;51.236;-0.336;2023-06-10T00:52:06;16.93;;;7.23;;
77948;SDS011;67146;51.236;-0.336;2023-06-10T00:54:32;22.60;;;8.10;;
77948;SDS011;67146;51.236;-0.336;2023-06-10T00:56:59;22.60;;;7.78;;
77948;SDS011;67146;51.236;-0.336;2023-06-10T00:59:25;21.50;;;7.88;;
77948;SDS011;67146;51.236;-0.336;2023-06-10T01:01:51;19.33;;;7.80;;
77948;SDS011;67146;51.236;-0.336;2023-06-10T01:04:17;21.63;;;8.90;;
77948;SDS011;67146;51.236;-0.336;2023-06-10T01:15:19;21.08;;;7.25;;
77948;SDS011;67146;51.236;-0.336;2023-06-10T01:17:55;20.52;;;7.47;;
77948;SDS011;67146;51.236;-0.336;2023-06-10T01:20:33;19.23;;;7.22;;
77948;SDS011;67146;51.236;-0.336;2023-06-10T01:22:59;19.70;;;7.38;;
77948;SDS011;67146;51.236;-0.336;2023-06-10T01:25:28;20.05;;;7.47;;
77948;SDS011;67146;51.236;-0.336;2023-06-10T01:27:54;18.42;;;7.68;;
77948;SDS011;67146;51.236;-0.336;2023-06-10T01:30:29;19.77;;;7.85;;
77948;SDS011;67146;51.236;-0.336;2023-06-10T01:32:58;20.10;;;7.47;;
77948;SDS011;67146;51.236;-0.336;2023-06-10T01:35:25;21.98;;;7.80;;
77948;SDS011;67146;51.236;-0.336;2023-06-10T01:37:51;20.95;;;7.57;;
77948;SDS011;67146;51.236;-0.336;2023-06-10T01:40:18;21.00;;;7.18;;
77948;SDS011;67146;51.236;-0.336;2023-06-10T01:42:44;16.73;;;6.43;;
77948;SDS011;67146;51.236;-0.336;2023-06-10T01:45:10;17.23;;;6.95;;
77948;SDS011;67146;51.236;-0.336;2023-06-10T01:47:35;17.35;;;7.28;;
77948;SDS011;67146;51.236;-0.336;2023-06-10T01:50:00;21.08;;;7.47;;
77948;SDS011;67146;51.236;-0.336;2023-06-10T01:52:26;19.00;;;7.22;;
77948;SDS011;67146;51.236;-0.336;2023-06-10T01:54:51;22.40;;;7.97;;
77948;SDS011;67146;51.236;-0.336;2023-06-10T01:57:18;20.93;;;6.73;;
77948;SDS011;67146;51.236;-0.336;2023-06-10T01:59:43;16.55;;;6.30;;
77948;SDS011;67146;51.236;-0.336;2023-06-10T02:02:09;21.13;;;6.95;;
77948;SDS011;67146;51.236;-0.336;2023-06-10T02:04:35;20.98;;;7.70;;
77948;SDS011;67146;51.236;-0.336;2023-06-10T02:07:01;20.63;;;7.20;;
77948;SDS011;67146;51.236;-0.336;2023-06-10T02:09:28;15.85;;;6.65;;
77948;SDS011;67146;51.236;-0.336;2023-06-10T02:11:54;22.90;;;7.60;;
77948;SDS011;67146;51.236;-0.336;2023-06-10T02:14:19;22.10;;;6.97;;
77948;SDS011;67146;51.236;-0.336;2023-06-10T02:16:45;30.27;;;9.05;;
77948;SDS011;67146;51.236;-0.336;2023-06-10T02:19:11;19.42;;;6.97;;
77948;SDS011;67146;51.236;-0.336;2023-06-10T02:21:37;20.15;;;6.32;;
77948;SDS011;67146;51.236;-0.336;2023-06-10T02:24:03;18.40;;;6.28;;
77948;SDS011;67146;51.236;-0.336;2023-06-10T02:26:28;22.25;;;7.22;;
77948;SDS011;67146;51.236;-0.336;2023-06-10T02:28:54;21.20;;;7.28;;
77948;SDS011;67146;51.236;-0.336;2023-06-10T02:31:20;18.35;;;6.55;;
77948;SDS011;67146;51.236;-0.336;2023-06-10T02:33:45;20.08;;;7.15;;
77948;SDS011;67146;51.236;-0.336;2023-06-10T02:36:11;17.20;;;6.78;;
77948;SDS011;67146;51.236;-0.336;2023-06-10T02:38:38;15.80;;;6.68;;
77948;SDS011;67146;51.236;-0.336;2023-06-10T02:41:05;19.13;;;6.55;;
77948;SDS011;67146;51.236;-0.336;2023-06-10T02:43:30;22.02;;;7.00;;
77948;SDS011;67146;51.236;-0.336;2023-06-10T02:45:55;16.97;;;7.10;;
77948;SDS011;67146;51.236;-0.336;2023-06-10T02:48:21;18.40;;;6.70;;
77948;SDS011;67146;51.236;-0.336;2023-06-10T02:50:46;18.50;;;7.10;;
77948;SDS011;67146;51.236;-0.336;2023-06-10T02:53:11;21.05;;;7.03;;
77948;SDS011;67146;51.236;-0.336;2023-06-10T02:55:37;23.27;;;7.15;;
77948;SDS011;67146;51.236;-0.336;2023-06-10T02:58:04;19.45;;;6.43;;
77948;SDS011;67146;51.236;-0.336;2023-06-10T03:00:30;20.08;;;6.68;;
77948;SDS011;67146;51.236;-0.336;2023-06-10T03:02:55;20.65;;;6.47;;
77948;SDS011;67146;51.236;-0.336;2023-06-10T03:05:22;24.30;;;7.13;;
77948;SDS011;67146;51.236;-0.336;2023-06-10T03:07:48;19.83;;;7.47;;
77948;SDS011;67146;51.236;-0.336;2023-06-10T03:10:13;20.77;;;7.90;;
77948;SDS011;67146;51.236;-0.336;2023-06-10T03:12:38;18.13;;;8.82;;
77948;SDS011;67146;51.236;-0.336;2023-06-10T03:15:04;20.05;;;6.40;;
77948;SDS011;67146;51.236;-0.336;2023-06-10T03:17:30;19.67;;;7.00;;
77948;SDS011;67146;51.236;-0.336;2023-06-10T03:19:56;21.67;;;6.70;;
77948;SDS011;67146;51.236;-0.336;2023-06-10T03:22:21;18.70;;;6.80;;
77948;SDS011;67146;51.236;-0.336;2023-06-10T03:24:47;19.97;;;7.00;;
77948;SDS011;67146;51.236;-0.336;2023-06-10T03:27:15;21.02;;;7.45;;
77948;SDS011;67146;51.236;-0.336;2023-06-10T03:29:41;19.50;;;7.07;;
77948;SDS011;67146;51.236;-0.336;2023-06-10T03:32:07;22.35;;;7.90;;
77948;SDS011;67146;51.236;-0.336;2023-06-10T03:34:32;22.05;;;7.53;;
77948;SDS011;67146;51.236;-0.336;2023-06-10T03:36:58;21.10;;;7.90;;
77948;SDS011;67146;51.236;-0.336;2023-06-10T03:39:24;23.70;;;7.60;;
77948;SDS011;67146;51.236;-0.336;2023-06-10T03:41:53;24.88;;;7.05;;
77948;SDS011;67146;51.236;-0.336;2023-06-10T03:44:19;18.15;;;8.70;;
77948;SDS011;67146;51.236;-0.336;2023-06-10T03:46:45;20.52;;;7.72;;
77948;SDS011;67146;51.236;-0.336;2023-06-10T03:49:10;19.73;;;6.53;;
77948;SDS011;67146;51.236;-0.336;2023-06-10T03:51:36;24.30;;;7.15;;
77948;SDS011;67146;51.236;-0.336;2023-06-10T03:54:01;19.00;;;7.45;;
77948;SDS011;67146;51.236;-0.336;2023-06-10T03:56:27;20.15;;;7.20;;
77948;SDS011;67146;51.236;-0.336;2023-06-10T03:58:53;22.48;;;7.93;;
77948;SDS011;67146;51.236;-0.336;2023-06-10T04:01:19;21.05;;;6.38;;
77948;SDS011;67146;51.236;-0.336;2023-06-10T04:03:46;21.42;;;7.25;;
77948;SDS011;67146;51.236;-0.336;2023-06-10T04:06:13;20.85;;;8.13;;
77948;SDS011;67146;51.236;-0.336;2023-06-10T04:08:38;22.08;;;7.55;;
77948;SDS011;67146;51.236;-0.336;2023-06-10T04:11:04;17.03;;;7.47;;
77948;SDS011;67146;51.236;-0.336;2023-06-10T04:13:29;20.55;;;6.57;;
77948;SDS011;67146;51.236;-0.336;2023-06-10T04:15:54;19.10;;;7.10;;
77948;SDS011;67146;51.236;-0.336;2023-06-10T04:18:20;21.90;;;7.27;;
77948;SDS011;67146;51.236;-0.336;2023-06-10T04:20:46;18.38;;;6.60;;
77948;SDS011;67146;51.236;-0.336;2023-06-10T04:23:12;19.90;;;7.43;;
77948;SDS011;67146;51.236;-0.336;2023-06-10T04:25:37;20.90;;;6.87;;
77948;SDS011;67146;51.236;-0.336;2023-06-10T04:28:02;18.40;;;6.63;;
77948;SDS011;67146;51.236;-0.336;2023-06-10T04:30:28;23.55;;;7.20;;
77948;SDS011;67146;51.236;-0.336;2023-06-10T04:32:53;22.15;;;7.72;;
77948;SDS011;67146;51.236;-0.336;2023-06-10T04:35:19;17.67;;;6.35;;
77948;SDS011;67146;51.236;-0.336;2023-06-10T04:37:44;20.33;;;6.75;;
77948;SDS011;67146;51.236;-0.336;2023-06-10T04:40:10;20.93;;;6.93;;
77948;SDS011;67146;51.236;-0.336;2023-06-10T04:42:36;18.45;;;6.43;;
77948;SDS011;67146;51.236;-0.336;2023-06-10T04:45:01;17.77;;;6.07;;
77948;SDS011;67146;51.236;-0.336;2023-06-10T04:47:28;17.00;;;6.38;;
77948;SDS011;67146;51.236;-0.336;2023-06-10T04:49:54;18.02;;;7.03;;
77948;SDS011;67146;51.236;-0.336;2023-06-10T04:52:19;19.10;;;6.13;;
77948;SDS011;67146;51.236;-0.336;2023-06-10T04:54:44;18.55;;;6.30;;
77948;SDS011;67146;51.236;-0.336;2023-06-10T04:57:10;15.70;;;5.60;;
77948;SDS011;67146;51.236;-0.336;2023-06-10T04:59:39;18.48;;;5.82;;
77948;SDS011;67146;51.236;-0.336;2023-06-10T05:02:05;16.95;;;5.93;;
77948;SDS011;67146;51.236;-0.336;2023-06-10T05:04:30;14.95;;;6.38;;
77948;SDS011;67146;51.236;-0.336;2023-06-10T05:06:55;14.57;;;7.50;;
77948;SDS011;67146;51.236;-0.336;2023-06-10T05:09:21;15.90;;;6.10;;
77948;SDS011;67146;51.236;-0.336;2023-06-10T05:11:46;13.50;;;5.80;;
77948;SDS011;67146;51.236;-0.336;2023-06-10T05:14:12;16.88;;;6.38;;
77948;SDS011;67146;51.236;-0.336;2023-06-10T05:16:37;15.80;;;5.60;;
77948;SDS011;67146;51.236;-0.336;2023-06-10T05:19:03;12.35;;;5.40;;
77948;SDS011;67146;51.236;-0.336;2023-06-10T05:21:29;16.38;;;5.50;;
77948;SDS011;67146;51.236;-0.336;2023-06-10T05:23:54;16.88;;;5.93;;
77948;SDS011;67146;51.236;-0.336;2023-06-10T05:26:20;15.55;;;5.45;;
77948;SDS011;67146;51.236;-0.336;2023-06-10T05:28:45;12.88;;;5.45;;
77948;SDS011;67146;51.236;-0.336;2023-06-10T05:31:10;18.90;;;5.77;;
77948;SDS011;67146;51.236;-0.336;2023-06-10T05:33:36;13.67;;;5.47;;
77948;SDS011;67146;51.236;-0.336;2023-06-10T05:36:01;14.37;;;5.93;;
77948;SDS011;67146;51.236;-0.336;2023-06-10T05:38:27;17.10;;;7.00;;
77948;SDS011;67146;51.236;-0.336;2023-06-10T05:40:52;14.40;;;5.55;;
77948;SDS011;67146;51.236;-0.336;2023-06-10T05:43:17;14.50;;;5.97;;
77948;SDS011;67146;51.236;-0.336;2023-06-10T05:45:43;12.97;;;5.03;;
77948;SDS011;67146;51.236;-0.336;2023-06-10T05:48:08;15.77;;;5.35;;
77948;SDS011;67146;51.236;-0.336;2023-06-10T05:50:34;15.33;;;6.43;;
77948;SDS011;67146;51.236;-0.336;2023-06-10T05:53:03;14.35;;;5.78;;
77948;SDS011;67146;51.236;-0.336;2023-06-10T05:55:28;14.15;;;5.82;;
77948;SDS011;67146;51.236;-0.336;2023-06-10T05:58:00;13.93;;;6.07;;
77948;SDS011;67146;51.236;-0.336;2023-06-10T06:00:25;17.73;;;6.30;;
77948;SDS011;67146;51.236;-0.336;2023-06-10T06:02:51;15.57;;;6.50;;
77948;SDS011;67146;51.236;-0.336;2023-06-10T06:05:17;13.10;;;6.28;;
77948;SDS011;67146;51.236;-0.336;2023-06-10T06:07:43;16.10;;;6.47;;
77948;SDS011;67146;51.236;-0.336;2023-06-10T06:10:08;16.58;;;6.60;;
77948;SDS011;67146;51.236;-0.336;2023-06-10T06:12:34;13.40;;;5.97;;
77948;SDS011;67146;51.236;-0.336;2023-06-10T06:14:59;15.30;;;6.03;;
77948;SDS011;67146;51.236;-0.336;2023-06-10T06:17:24;11.90;;;5.30;;
77948;SDS011;67146;51.236;-0.336;2023-06-10T06:19:50;15.05;;;6.47;;
77948;SDS011;67146;51.236;-0.336;2023-06-10T06:22:15;15.30;;;6.30;;
77948;SDS011;67146;51.236;-0.336;2023-06-10T06:24:44;12.82;;;5.85;;
77948;SDS011;67146;51.236;-0.336;2023-06-10T06:27:10;16.60;;;6.70;;
77948;SDS011;67146;51.236;-0.336;2023-06-10T06:29:35;13.23;;;6.57;;
77948;SDS011;67146;51.236;-0.336;2023-06-10T06:32:00;15.38;;;6.00;;
77948;SDS011;67146;51.236;-0.336;2023-06-10T06:34:26;16.67;;;8.27;;
77948;SDS011;67146;51.236;-0.336;2023-06-10T06:36:51;14.57;;;5.77;;
77948;SDS011;67146;51.236;-0.336;2023-06-10T06:39:16;16.33;;;7.77;;
77948;SDS011;67146;51.236;-0.336;2023-06-10T06:41:42;15.13;;;6.00;;
77948;SDS011;67146;51.236;-0.336;2023-06-10T06:44:07;14.90;;;6.30;;
77948;SDS011;67146;51.236;-0.336;2023-06-10T06:46:32;14.67;;;6.57;;
77948;SDS011;67146;51.236;-0.336;2023-06-10T06:48:58;14.43;;;6.20;;
77948;SDS011;67146;51.236;-0.336;2023-06-10T06:51:23;12.33;;;5.63;;
77948;SDS011;67146;51.236;-0.336;2023-06-10T06:53:48;14.20;;;6.30;;
77948;SDS011;67146;51.236;-0.336;2023-06-10T06:56:16;13.95;;;5.70;;
77948;SDS011;67146;51.236;-0.336;2023-06-10T06:58:41;14.87;;;6.97;;
77948;SDS011;67146;51.236;-0.336;2023-06-10T07:01:06;13.20;;;5.93;;
77948;SDS011;67146;51.236;-0.336;2023-06-10T07:03:32;15.03;;;6.43;;
77948;SDS011;67146;51.236;-0.336;2023-06-10T07:05:57;17.08;;;6.32;;
77948;SDS011;67146;51.236;-0.336;2023-06-10T07:08:22;16.77;;;5.80;;
77948;SDS011;67146;51.236;-0.336;2023-06-10T07:10:48;15.53;;;8.33;;
77948;SDS011;67146;51.236;-0.336;2023-06-10T07:13:14;13.20;;;6.93;;
77948;SDS011;67146;51.236;-0.336;2023-06-10T07:15:39;14.30;;;6.00;;
77948;SDS011;67146;51.236;-0.336;2023-06-10T07:18:04;12.47;;;5.43;;
77948;SDS011;67146;51.236;-0.336;2023-06-10T07:20:30;13.23;;;6.15;;
77948;SDS011;67146;51.236;-0.336;2023-06-10T07:22:56;13.35;;;6.57;;
77948;SDS011;67146;51.236;-0.336;2023-06-10T07:25:21;12.93;;;5.97;;
77948;SDS011;67146;51.236;-0.336;2023-06-10T07:27:46;14.33;;;6.20;;
77948;SDS011;67146;51.236;-0.336;2023-06-10T07:30:12;13.40;;;5.70;;
77948;SDS011;67146;51.236;-0.336;2023-06-10T07:32:37;15.23;;;5.82;;
77948;SDS011;67146;51.236;-0.336;2023-06-10T07:35:03;12.33;;;5.27;;
77948;SDS011;67146;51.236;-0.336;2023-06-10T07:37:31;11.63;;;6.03;;
77948;SDS011;67146;51.236;-0.336;2023-06-10T07:39:56;13.73;;;6.00;;
77948;SDS011;67146;51.236;-0.336;2023-06-10T07:42:21;15.13;;;5.67;;
77948;SDS011;67146;51.236;-0.336;2023-06-10T07:44:47;12.63;;;5.40;;
77948;SDS011;67146;51.236;-0.336;2023-06-10T07:47:12;12.93;;;5.87;;
77948;SDS011;67146;51.236;-0.336;2023-06-10T07:49:37;10.57;;;5.17;;
77948;SDS011;67146;51.236;-0.336;2023-06-10T07:52:03;13.85;;;6.63;;
77948;SDS011;67146;51.236;-0.336;2023-06-10T07:54:29;14.57;;;5.78;;
77948;SDS011;67146;51.236;-0.336;2023-06-10T07:56:54;16.05;;;5.88;;
77948;SDS011;67146;51.236;-0.336;2023-06-10T07:59:19;15.27;;;6.20;;
77948;SDS011;67146;51.236;-0.336;2023-06-10T08:01:45;12.32;;;6.10;;
77948;SDS011;67146;51.236;-0.336;2023-06-10T08:04:10;10.80;;;5.87;;
77948;SDS011;67146;51.236;-0.336;2023-06-10T08:06:35;14.35;;;6.85;;
77948;SDS011;67146;51.236;-0.336;2023-06-10T08:09:02;10.68;;;5.20;;
77948;SDS011;67146;51.236;-0.336;2023-06-10T08:11:27;14.55;;;6.47;;
77948;SDS011;67146;51.236;-0.336;2023-06-10T08:13:54;12.50;;;5.22;;
77948;SDS011;67146;51.236;-0.336;2023-06-10T08:16:19;11.43;;;5.33;;
77948;SDS011;67146;51.236;-0.336;2023-06-10T08:18:45;13.35;;;6.25;;
77948;SDS011;67146;51.236;-0.336;2023-06-10T08:21:10;10.13;;;5.00;;
77948;SDS011;67146;51.236;-0.336;2023-06-10T08:23:36;16.02;;;5.78;;
77948;SDS011;67146;51.236;-0.336;2023-06-10T08:26:01;12.30;;;4.73;;
77948;SDS011;67146;51.236;-0.336;2023-06-10T08:28:26;12.37;;;6.40;;
77948;SDS011;67146;51.236;-0.336;2023-06-10T08:30:52;13.18;;;5.97;;
77948;SDS011;67146;51.236;-0.336;2023-06-10T08:33:17;13.10;;;5.80;;
77948;SDS011;67146;51.236;-0.336;2023-06-10T08:35:42;13.70;;;6.18;;
77948;SDS011;67146;51.236;-0.336;2023-06-10T08:38:08;12.30;;;6.07;;
77948;SDS011;67146;51.236;-0.336;2023-06-10T08:40:33;12.43;;;5.87;;
77948;SDS011;67146;51.236;-0.336;2023-06-10T08:45:30;10.90;;;5.43;;
77948;SDS011;67146;51.236;-0.336;2023-06-10T08:48:00;9.10;;;5.55;;
77948;SDS011;67146;51.236;-0.336;2023-06-10T08:50:29;11.68;;;6.75;;
77948;SDS011;67146;51.236;-0.336;2023-06-10T08:52:57;10.90;;;5.85;;
77948;SDS011;67146;51.236;-0.336;2023-06-10T08:55:25;11.50;;;5.60;;
77948;SDS011;67146;51.236;-0.336;2023-06-10T08:57:52;10.98;;;5.72;;
77948;SDS011;67146;51.236;-0.336;2023-06-10T09:00:18;11.13;;;5.53;;
77948;SDS011;67146;51.236;-0.336;2023-06-10T09:02:44;12.07;;;5.78;;
77948;SDS011;67146;51.236;-0.336;2023-06-10T09:05:10;11.45;;;6.10;;
77948;SDS011;67146;51.236;-0.336;2023-06-10T09:07:35;12.38;;;5.20;;
77948;SDS011;67146;51.236;-0.336;2023-06-10T09:10:01;11.35;;;5.40;;
77948;SDS011;67146;51.236;-0.336;2023-06-10T09:12:32;11.50;;;5.55;;
77948;SDS011;67146;51.236;-0.336;2023-06-10T09:15:00;11.10;;;5.72;;
77948;SDS011;67146;51.236;-0.336;2023-06-10T09:17:27;11.23;;;6.43;;
77948;SDS011;67146;51.236;-0.336;2023-06-10T09:19:53;10.73;;;5.35;;
77948;SDS011;67146;51.236;-0.336;2023-06-10T09:22:20;11.95;;;5.53;;
77948;SDS011;67146;51.236;-0.336;2023-06-10T09:24:50;11.15;;;5.65;;
77948;SDS011;67146;51.236;-0.336;2023-06-10T09:27:15;13.77;;;6.22;;
77948;SDS011;67146;51.236;-0.336;2023-06-10T09:29:53;11.80;;;5.60;;
77948;SDS011;67146;51.236;-0.336;2023-06-10T09:32:19;11.90;;;6.38;;
77948;SDS011;67146;51.236;-0.336;2023-06-10T09:34:45;11.88;;;5.55;;
77948;SDS011;67146;51.236;-0.336;2023-06-10T09:37:11;11.43;;;6.13;;
77948;SDS011;67146;51.236;-0.336;2023-06-10T09:39:38;12.13;;;5.63;;
77948;SDS011;67146;51.236;-0.336;2023-06-10T09:42:19;11.95;;;6.25;;
77948;SDS011;67146;51.236;-0.336;2023-06-10T09:44:50;10.60;;;5.18;;
77948;SDS011;67146;51.236;-0.336;2023-06-10T09:47:20;15.00;;;6.78;;
77948;SDS011;67146;51.236;-0.336;2023-06-10T09:49:45;12.38;;;5.57;;
77948;SDS011;67146;51.236;-0.336;2023-06-10T09:52:11;9.53;;;5.43;;
77948;SDS011;67146;51.236;-0.336;2023-06-10T09:54:36;11.03;;;5.90;;
77948;SDS011;67146;51.236;-0.336;2023-06-10T09:57:06;12.07;;;5.55;;
77948;SDS011;67146;51.236;-0.336;2023-06-10T09:59:32;12.20;;;6.55;;
77948;SDS011;67146;51.236;-0.336;2023-06-10T10:01:58;10.27;;;6.18;;
77948;SDS011;67146;51.236;-0.336;2023-06-10T10:04:25;12.23;;;6.05;;
77948;SDS011;67146;51.236;-0.336;2023-06-10T10:06:52;11.25;;;5.93;;
77948;SDS011;67146;51.236;-0.336;2023-06-10T10:09:17;10.40;;;4.97;;
77948;SDS011;67146;51.236;-0.336;2023-06-10T10:11:43;14.50;;;5.73;;
77948;SDS011;67146;51.236;-0.336;2023-06-10T10:14:09;10.68;;;5.90;;
77948;SDS011;67146;51.236;-0.336;2023-06-10T10:16:40;7.90;;;4.68;;
77948;SDS011;67146;51.236;-0.336;2023-06-10T10:19:16;8.32;;;4.95;;
77948;SDS011;67146;51.236;-0.336;2023-06-10T10:21:48;10.25;;;5.20;;
77948;SDS011;67146;51.236;-0.336;2023-06-10T10:24:21;11.05;;;5.30;;
77948;SDS011;67146;51.236;-0.336;2023-06-10T10:26:47;7.03;;;4.63;;
77948;SDS011;67146;51.236;-0.336;2023-06-10T10:29:24;8.68;;;4.93;;
77948;SDS011;67146;51.236;-0.336;2023-06-10T10:31:53;10.50;;;5.90;;
77948;SDS011;67146;51.236;-0.336;2023-06-10T10:34:22;8.98;;;7.35;;
77948;SDS011;67146;51.236;-0.336;2023-06-10T10:36:50;9.73;;;5.00;;
77948;SDS011;67146;51.236;-0.336;2023-06-10T10:39:16;8.63;;;4.90;;
77948;SDS011;67146;51.236;-0.336;2023-06-10T10:41:42;10.32;;;5.15;;
77948;SDS011;67146;51.236;-0.336;2023-06-10T10:44:07;9.57;;;5.43;;
77948;SDS011;67146;51.236;-0.336;2023-06-10T10:46:44;7.85;;;5.45;;
77948;SDS011;67146;51.236;-0.336;2023-06-10T10:49:14;8.55;;;5.07;;
77948;SDS011;67146;51.236;-0.336;2023-06-10T10:51:56;7.40;;;4.80;;
77948;SDS011;67146;51.236;-0.336;2023-06-10T10:54:32;7.97;;;4.70;;
77948;SDS011;67146;51.236;-0.336;2023-06-10T10:57:32;7.20;;;5.32;;
77948;SDS011;67146;51.236;-0.336;2023-06-10T11:02:43;8.73;;;5.10;;
77948;SDS011;67146;51.236;-0.336;2023-06-10T11:05:14;7.53;;;4.20;;
77948;SDS011;67146;51.236;-0.336;2023-06-10T11:07:40;7.28;;;4.55;;
77948;SDS011;67146;51.236;-0.336;2023-06-10T11:15:10;7.35;;;4.60;;
77948;SDS011;67146;51.236;-0.336;2023-06-10T11:17:35;7.97;;;4.82;;
77948;SDS011;67146;51.236;-0.336;2023-06-10T11:20:01;6.73;;;4.47;;
77948;SDS011;67146;51.236;-0.336;2023-06-10T11:22:26;8.45;;;6.28;;
77948;SDS011;67146;51.236;-0.336;2023-06-10T11:24:52;10.05;;;4.93;;
77948;SDS011;67146;51.236;-0.336;2023-06-10T11:27:21;10.13;;;5.87;;
77948;SDS011;67146;51.236;-0.336;2023-06-10T11:32:33;7.97;;;5.10;;
77948;SDS011;67146;51.236;-0.336;2023-06-10T11:34:59;9.73;;;6.03;;
77948;SDS011;67146;51.236;-0.336;2023-06-10T11:37:28;8.18;;;4.85;;
77948;SDS011;67146;51.236;-0.336;2023-06-10T11:39:56;6.77;;;4.33;;
77948;SDS011;67146;51.236;-0.336;2023-06-10T11:42:22;7.15;;;4.95;;
77948;SDS011;67146;51.236;-0.336;2023-06-10T11:44:48;7.60;;;4.95;;
77948;SDS011;67146;51.236;-0.336;2023-06-10T11:47:14;9.15;;;4.82;;
77948;SDS011;67146;51.236;-0.336;2023-06-10T11:49:40;10.33;;;4.87;;
77948;SDS011;67146;51.236;-0.336;2023-06-10T11:52:05;7.83;;;5.00;;
77948;SDS011;67146;51.236;-0.336;2023-06-10T11:54:31;8.00;;;4.72;;
77948;SDS011;67146;51.236;-0.336;2023-06-10T11:56:59;8.03;;;4.40;;
77948;SDS011;67146;51.236;-0.336;2023-06-10T11:59:28;8.95;;;6.35;;
77948;SDS011;67146;51.236;-0.336;2023-06-10T12:01:54;7.05;;;4.47;;
77948;SDS011;67146;51.236;-0.336;2023-06-10T12:04:19;7.80;;;4.32;;
77948;SDS011;67146;51.236;-0.336;2023-06-10T12:11:40;7.40;;;4.28;;
77948;SDS011;67146;51.236;-0.336;2023-06-10T12:14:05;6.75;;;3.95;;
77948;SDS011;67146;51.236;-0.336;2023-06-10T12:16:31;7.82;;;3.83;;
77948;SDS011;67146;51.236;-0.336;2023-06-10T12:19:01;7.47;;;4.05;;
77948;SDS011;67146;51.236;-0.336;2023-06-10T12:21:27;7.47;;;3.53;;
77948;SDS011;67146;51.236;-0.336;2023-06-10T12:24:06;7.30;;;3.58;;
77948;SDS011;67146;51.236;-0.336;2023-06-10T12:26:36;6.35;;;3.35;;
77948;SDS011;67146;51.236;-0.336;2023-06-10T12:31:52;6.97;;;3.92;;
77948;SDS011;67146;51.236;-0.336;2023-06-10T12:34:18;6.85;;;3.88;;
77948;SDS011;67146;51.236;-0.336;2023-06-10T12:36:48;8.70;;;4.87;;
77948;SDS011;67146;51.236;-0.336;2023-06-10T12:39:16;5.95;;;3.85;;
77948;SDS011;67146;51.236;-0.336;2023-06-10T12:41:46;6.30;;;3.80;;
77948;SDS011;67146;51.236;-0.336;2023-06-10T12:44:13;6.18;;;3.83;;
77948;SDS011;67146;51.236;-0.336;2023-06-10T12:46:39;7.32;;;3.78;;
77948;SDS011;67146;51.236;-0.336;2023-06-10T12:49:04;7.73;;;4.37;;
77948;SDS011;67146;51.236;-0.336;2023-06-10T12:51:29;6.33;;;4.43;;
77948;SDS011;67146;51.236;-0.336;2023-06-10T12:53:55;6.93;;;5.60;;
77948;SDS011;67146;51.236;-0.336;2023-06-10T12:56:20;7.00;;;5.73;;
77948;SDS011;67146;51.236;-0.336;2023-06-10T12:58:47;6.68;;;4.32;;
77948;SDS011;67146;51.236;-0.336;2023-06-10T13:01:13;8.35;;;3.70;;
77948;SDS011;67146;51.236;-0.336;2023-06-10T13:03:38;7.68;;;4.22;;
77948;SDS011;67146;51.236;-0.336;2023-06-10T13:06:05;6.28;;;3.75;;
77948;SDS011;67146;51.236;-0.336;2023-06-10T13:08:31;7.22;;;3.80;;
77948;SDS011;67146;51.236;-0.336;2023-06-10T13:10:57;8.07;;;4.47;;
77948;SDS011;67146;51.236;-0.336;2023-06-10T13:13:22;9.85;;;4.68;;
77948;SDS011;67146;51.236;-0.336;2023-06-10T13:15:48;7.30;;;4.57;;
77948;SDS011;67146;51.236;-0.336;2023-06-10T13:18:15;7.85;;;4.43;;
77948;SDS011;67146;51.236;-0.336;2023-06-10T13:20:40;6.55;;;4.20;;
77948;SDS011;67146;51.236;-0.336;2023-06-10T13:23:05;6.60;;;4.13;;
77948;SDS011;67146;51.236;-0.336;2023-06-10T13:25:31;7.18;;;4.55;;
77948;SDS011;67146;51.236;-0.336;2023-06-10T13:27:57;8.85;;;4.63;;
77948;SDS011;67146;51.236;-0.336;2023-06-10T13:30:22;7.97;;;6.00;;
77948;SDS011;67146;51.236;-0.336;2023-06-10T13:32:48;7.85;;;4.72;;
77948;SDS011;67146;51.236;-0.336;2023-06-10T13:35:13;8.30;;;4.67;;
77948;SDS011;67146;51.236;-0.336;2023-06-10T13:37:38;6.85;;;4.22;;
77948;SDS011;67146;51.236;-0.336;2023-06-10T13:40:04;7.80;;;4.72;;
77948;SDS011;67146;51.236;-0.336;2023-06-10T13:42:30;6.85;;;4.25;;
77948;SDS011;67146;51.236;-0.336;2023-06-10T13:44:55;6.60;;;4.63;;
77948;SDS011;67146;51.236;-0.336;2023-06-10T13:47:21;6.82;;;4.90;;
77948;SDS011;67146;51.236;-0.336;2023-06-10T13:49:47;7.35;;;5.20;;
77948;SDS011;67146;51.236;-0.336;2023-06-10T13:52:12;6.50;;;4.37;;
77948;SDS011;67146;51.236;-0.336;2023-06-10T13:54:37;7.83;;;5.60;;
77948;SDS011;67146;51.236;-0.336;2023-06-10T13:57:03;7.15;;;4.72;;
77948;SDS011;67146;51.236;-0.336;2023-06-10T13:59:28;7.00;;;4.38;;
77948;SDS011;67146;51.236;-0.336;2023-06-10T14:01:54;6.83;;;4.07;;
77948;SDS011;67146;51.236;-0.336;2023-06-10T14:04:19;6.97;;;3.92;;
77948;SDS011;67146;51.236;-0.336;2023-06-10T14:06:48;6.33;;;4.10;;
77948;SDS011;67146;51.236;-0.336;2023-06-10T14:09:13;6.95;;;4.50;;
77948;SDS011;67146;51.236;-0.336;2023-06-10T14:11:39;7.55;;;5.18;;
77948;SDS011;67146;51.236;-0.336;2023-06-10T14:14:04;7.28;;;3.83;;
77948;SDS011;67146;51.236;-0.336;2023-06-10T14:16:30;9.55;;;4.70;;
77948;SDS011;67146;51.236;-0.336;2023-06-10T14:18:55;7.53;;;4.65;;
77948;SDS011;67146;51.236;-0.336;2023-06-10T14:21:21;7.03;;;3.83;;
77948;SDS011;67146;51.236;-0.336;2023-06-10T14:23:46;8.40;;;4.70;;
77948;SDS011;67146;51.236;-0.336;2023-06-10T14:26:13;7.30;;;4.43;;
77948;SDS011;67146;51.236;-0.336;2023-06-10T14:28:39;7.05;;;4.30;;
77948;SDS011;67146;51.236;-0.336;2023-06-10T14:31:04;6.63;;;4.57;;
77948;SDS011;67146;51.236;-0.336;2023-06-10T14:33:29;7.63;;;4.43;;
77948;SDS011;67146;51.236;-0.336;2023-06-10T14:35:56;9.82;;;4.72;;
77948;SDS011;67146;51.236;-0.336;2023-06-10T14:38:21;9.63;;;3.97;;
77948;SDS011;67146;51.236;-0.336;2023-06-10T14:40:47;8.23;;;5.43;;
77948;SDS011;67146;51.236;-0.336;2023-06-10T14:43:12;6.87;;;4.07;;
77948;SDS011;67146;51.236;-0.336;2023-06-10T14:45:37;11.47;;;4.60;;
77948;SDS011;67146;51.236;-0.336;2023-06-10T14:48:07;7.13;;;4.10;;
77948;SDS011;67146;51.236;-0.336;2023-06-10T14:50:35;6.93;;;4.43;;